createdAt,value
2018-09-24T00:04:06.360Z,7.2
2018-09-24T00:12:06.834Z,7.1
2018-09-24T00:16:07.123Z,7.2
2018-09-24T00:21:07.489Z,7.4
2018-09-24T00:24:07.656Z,7.5
2018-09-24T00:28:07.911Z,7.6
2018-09-24T00:36:08.455Z,7.7
2018-09-24T00:53:09.563Z,7.6
2018-09-24T00:59:09.931Z,7.5
2018-09-24T01:05:10.348Z,7.4
2018-09-24T01:13:10.862Z,7.2
2018-09-24T01:18:11.245Z,7.1
2018-09-24T01:27:11.834Z,7
2018-09-24T01:36:12.349Z,7.1
2018-09-24T01:42:12.760Z,7.2
2018-09-24T01:43:12.827Z,7.1
2018-09-24T01:45:12.988Z,7.2
2018-09-24T01:48:13.154Z,7.1
2018-09-24T01:49:13.218Z,7.2
2018-09-24T01:51:13.377Z,7.1
2018-09-24T01:52:13.441Z,7.2
2018-09-24T01:58:13.827Z,7.4
2018-09-24T02:18:15.499Z,7.2
2018-09-24T02:20:15.603Z,7.4
2018-09-24T02:21:15.671Z,7.2
2018-09-24T02:23:15.879Z,7.4
2018-09-24T02:30:16.429Z,7.5
2018-09-24T02:42:17.984Z,7.2
2018-09-24T02:45:17.643Z,7.1
2018-09-24T02:50:18.024Z,7
2018-09-24T02:57:18.572Z,7.1
2018-09-24T03:05:19.226Z,7.2
2018-09-24T03:16:20.164Z,7.1
2018-09-24T03:17:20.182Z,7.2
2018-09-24T03:21:20.550Z,7.4
2018-09-24T03:26:20.973Z,7.5
2018-09-24T03:27:21.049Z,7.4
2018-09-24T03:28:21.092Z,7.5
2018-09-24T03:29:21.270Z,7.4
2018-09-24T03:30:21.279Z,7.5
2018-09-24T03:35:21.651Z,7.4
2018-09-24T03:47:22.667Z,7.5
2018-09-24T03:49:22.827Z,7.4
2018-09-24T03:50:22.857Z,7.5
2018-09-24T03:51:22.975Z,7.4
2018-09-24T04:01:23.700Z,7.2
2018-09-24T04:08:24.440Z,7.1
2018-09-24T04:11:24.383Z,7.2
2018-09-24T04:12:24.449Z,7.1
2018-09-24T04:24:25.239Z,7
2018-09-24T04:37:26.088Z,7.1
2018-09-24T04:53:27.182Z,7.2
2018-09-24T04:54:27.256Z,7.1
2018-09-24T04:55:27.334Z,7.2
2018-09-24T04:56:27.383Z,7.1
2018-09-24T04:57:27.427Z,7.2
2018-09-24T05:10:28.320Z,7.4
2018-09-24T05:18:28.884Z,7.2
2018-09-24T05:24:29.277Z,7.1
2018-09-24T05:25:29.377Z,7.2
2018-09-24T05:37:30.244Z,7.4
2018-09-24T05:40:30.410Z,7.5
2018-09-24T05:43:30.629Z,7.6
2018-09-24T05:45:30.800Z,7.7
2018-09-24T05:46:30.832Z,7.9
2018-09-24T05:47:30.937Z,8
2018-09-24T05:49:31.021Z,8.1
2018-09-24T05:50:31.122Z,8.3
2018-09-24T05:51:31.194Z,8.4
2018-09-24T05:52:31.289Z,8.6
2018-09-24T05:56:31.529Z,8.8
2018-09-24T06:00:31.781Z,8.9
2018-09-24T06:01:31.964Z,9
2018-09-24T06:04:32.127Z,8.9
2018-09-24T06:07:32.293Z,8.8
2018-09-24T06:13:32.743Z,8.9
2018-09-24T06:15:32.865Z,9
2018-09-24T06:16:32.881Z,9.1
2018-09-24T06:17:32.952Z,9.3
2018-09-24T06:18:33.055Z,9.5
2018-09-24T06:19:33.083Z,9.8
2018-09-24T06:20:33.157Z,10
2018-09-24T06:21:33.217Z,10.1
2018-09-24T06:22:33.290Z,10.3
2018-09-24T06:23:33.358Z,10.4
2018-09-24T06:25:33.511Z,10.3
2018-09-24T06:27:33.666Z,10.1
2018-09-24T06:28:33.814Z,10
2018-09-24T06:30:33.865Z,9.9
2018-09-24T06:33:34.083Z,10
2018-09-24T06:35:34.217Z,10.1
2018-09-24T06:37:34.406Z,10.3
2018-09-24T06:38:34.492Z,10.1
2018-09-24T06:40:34.461Z,10
2018-09-24T06:42:34.682Z,9.9
2018-09-24T06:44:34.918Z,10
2018-09-24T06:45:34.919Z,10.1
2018-09-24T06:46:35.038Z,10.3
2018-09-24T06:49:35.255Z,10.4
2018-09-24T06:51:35.351Z,10.6
2018-09-24T06:52:35.412Z,10.9
2018-09-24T06:53:35.467Z,11
2018-09-24T06:55:35.645Z,11.1
2018-09-24T06:56:35.678Z,11.3
2018-09-24T06:58:35.851Z,11.5
2018-09-24T06:59:35.892Z,11.6
2018-09-24T07:00:35.951Z,11.8
2018-09-24T07:01:36.010Z,11.9
2018-09-24T07:03:36.188Z,12
2018-09-24T07:05:36.339Z,12.1
2018-09-24T07:06:36.344Z,12.2
2018-09-24T07:07:36.470Z,12.4
2018-09-24T07:10:36.601Z,12.2
2018-09-24T07:11:36.551Z,12.1
2018-09-24T07:12:36.745Z,12
2018-09-24T07:16:37.079Z,11.9
2018-09-24T07:17:37.105Z,11.8
2018-09-24T07:18:37.156Z,11.5
2018-09-24T07:20:37.298Z,11.4
2018-09-24T07:22:37.611Z,11.5
2018-09-24T07:23:37.547Z,11.9
2018-09-24T07:24:37.583Z,12.4
2018-09-24T07:25:37.667Z,12.8
2018-09-24T07:26:37.699Z,13
2018-09-24T07:27:37.771Z,13.1
2018-09-24T07:28:37.803Z,13
2018-09-24T07:29:37.881Z,12.8
2018-09-24T07:30:37.956Z,12.6
2018-09-24T07:31:37.994Z,12.5
2018-09-24T07:32:38.061Z,12.4
2018-09-24T07:35:38.288Z,12.2
2018-09-24T07:36:38.409Z,12.1
2018-09-24T07:37:38.462Z,12
2018-09-24T07:38:38.545Z,11.9
2018-09-24T07:41:38.719Z,12
2018-09-24T07:42:38.807Z,12.1
2018-09-24T07:43:38.860Z,12.2
2018-09-24T07:44:38.929Z,12.6
2018-09-24T07:45:39.013Z,13
2018-09-24T07:46:39.059Z,13.3
2018-09-24T07:47:39.220Z,13.6
2018-09-24T07:49:39.263Z,13.5
2018-09-24T07:58:40.006Z,13.6
2018-09-24T07:59:40.117Z,13.9
2018-09-24T08:00:40.214Z,14.1
2018-09-24T08:02:40.317Z,13.9
2018-09-24T08:03:40.352Z,13.6
2018-09-24T08:04:40.399Z,13.3
2018-09-24T08:05:40.470Z,13.1
2018-09-24T08:06:40.539Z,12.9
2018-09-24T08:08:40.678Z,13.1
2018-09-24T08:09:40.762Z,13.4
2018-09-24T08:10:40.853Z,13.8
2018-09-24T08:11:40.889Z,14.5
2018-09-24T08:12:40.958Z,15
2018-09-24T08:13:40.990Z,15.4
2018-09-24T08:14:41.057Z,15.5
2018-09-24T08:16:41.268Z,15.6
2018-09-24T08:17:41.301Z,16.1
2018-09-24T08:18:41.367Z,16.3
2018-09-24T08:19:41.386Z,16
2018-09-24T08:20:41.485Z,15.6
2018-09-24T08:21:41.537Z,15.5
2018-09-24T08:22:41.603Z,16.5
2018-09-24T08:23:41.667Z,18
2018-09-24T08:24:41.737Z,19.4
2018-09-24T08:25:41.828Z,19.6
2018-09-24T08:26:41.877Z,19.9
2018-09-24T08:27:41.908Z,19.6
2018-09-24T08:28:42.046Z,19.3
2018-09-24T08:29:42.062Z,18.5
2018-09-24T08:30:42.155Z,18.1
2018-09-24T08:31:42.201Z,17.9
2018-09-24T08:32:42.297Z,18.3
2018-09-24T08:33:42.310Z,18.4
2018-09-24T08:34:42.430Z,18.8
2018-09-24T08:35:42.481Z,18.4
2018-09-24T08:36:42.600Z,18
2018-09-24T08:37:42.624Z,17.8
2018-09-24T08:39:42.748Z,17.6
2018-09-24T08:40:42.844Z,17.4
2018-09-24T08:42:42.968Z,17.8
2018-09-24T08:43:42.978Z,19.3
2018-09-24T08:45:43.153Z,18.5
2018-09-24T08:46:43.199Z,17.8
2018-09-24T08:47:43.292Z,17.1
2018-09-24T08:48:43.329Z,16.6
2018-09-24T08:49:43.448Z,16.4
2018-09-24T08:50:43.479Z,15.9
2018-09-24T08:51:43.573Z,15.5
2018-09-24T08:54:43.723Z,15.8
2018-09-24T08:55:43.795Z,15.6
2018-09-24T08:56:43.892Z,15.8
2018-09-24T08:57:43.942Z,16.8
2018-09-24T08:58:44.058Z,17
2018-09-24T08:59:44.112Z,17.1
2018-09-24T09:00:44.140Z,17
2018-09-24T09:02:44.444Z,17.5
2018-09-24T09:03:44.336Z,18
2018-09-24T09:04:44.432Z,17.9
2018-09-24T09:05:44.492Z,18
2018-09-24T09:06:44.591Z,19.4
2018-09-24T09:07:44.629Z,20.6
2018-09-24T09:08:44.697Z,21.5
2018-09-24T09:09:44.795Z,22.8
2018-09-24T09:10:44.865Z,22.9
2018-09-24T09:11:44.905Z,22
2018-09-24T09:12:44.888Z,22.5
2018-09-24T09:13:45.041Z,22.9
2018-09-24T09:14:45.161Z,24
2018-09-24T09:15:45.180Z,24.1
2018-09-24T09:16:45.323Z,25
2018-09-24T09:17:45.364Z,25.9
2018-09-24T09:18:45.370Z,26.4
2018-09-24T09:19:45.461Z,27.2
2018-09-24T09:20:45.577Z,27.4
2018-09-24T09:21:45.570Z,27
2018-09-24T09:22:45.702Z,27.4
2018-09-24T09:23:45.738Z,28
2018-09-24T09:24:45.866Z,27.2
2018-09-24T09:25:45.933Z,28.5
2018-09-24T09:26:45.937Z,29.1
2018-09-24T09:27:46.040Z,28.7
2018-09-24T09:28:46.127Z,29
2018-09-24T09:29:46.163Z,29.9
2018-09-24T09:30:46.285Z,28.1
2018-09-24T09:31:46.277Z,26.5
2018-09-24T09:32:46.345Z,25.4
2018-09-24T09:33:46.452Z,26.9
2018-09-24T09:34:46.497Z,27.8
2018-09-24T09:35:46.583Z,27.6
2018-09-24T09:36:46.621Z,27.8
2018-09-24T09:37:46.702Z,27.4
2018-09-24T09:38:46.725Z,26
2018-09-24T09:39:46.810Z,24.9
2018-09-24T09:40:46.853Z,24.4
2018-09-24T09:41:46.919Z,24.3
2018-09-24T09:42:46.987Z,24.4
2018-09-24T09:43:47.067Z,23.5
2018-09-24T09:44:47.165Z,23.1
2018-09-24T09:45:47.200Z,23.7
2018-09-24T09:46:47.299Z,22.8
2018-09-24T09:47:47.398Z,22
2018-09-24T09:48:47.456Z,21.8
2018-09-24T09:49:47.523Z,22.9
2018-09-24T09:50:47.588Z,23.4
2018-09-24T09:51:47.626Z,22.4
2018-09-24T09:52:47.688Z,21.4
2018-09-24T09:53:47.787Z,20.5
2018-09-24T09:54:47.855Z,19.8
2018-09-24T09:55:47.902Z,19.1
2018-09-24T09:56:47.975Z,18.6
2018-09-24T09:57:48.013Z,18.1
2018-09-24T09:58:48.120Z,17.6
2018-09-24T09:59:48.166Z,17
2018-09-24T10:00:48.199Z,16.5
2018-09-24T10:01:48.274Z,15.9
2018-09-24T10:02:48.390Z,15.4
2018-09-24T10:03:48.440Z,15
2018-09-24T10:04:48.494Z,14.7
2018-09-24T10:05:48.560Z,14.4
2018-09-24T10:06:48.594Z,14
2018-09-24T10:07:48.685Z,13.8
2018-09-24T10:08:48.717Z,13.5
2018-09-24T10:11:48.951Z,13.8
2018-09-24T10:12:48.986Z,13.9
2018-09-24T10:13:49.063Z,14.9
2018-09-24T10:14:49.136Z,15
2018-09-24T10:15:49.239Z,16.5
2018-09-24T10:16:49.300Z,19.1
2018-09-24T10:17:49.348Z,20
2018-09-24T10:18:49.401Z,20.5
2018-09-24T10:19:49.481Z,19.9
2018-09-24T10:20:49.544Z,19.5
2018-09-24T10:21:49.593Z,19.8
2018-09-24T10:22:49.673Z,21.8
2018-09-24T10:23:49.747Z,21.4
2018-09-24T10:24:49.826Z,21
2018-09-24T10:25:49.861Z,20.5
2018-09-24T10:26:49.928Z,19.8
2018-09-24T10:27:49.987Z,19.3
2018-09-24T10:28:50.083Z,18.8
2018-09-24T10:29:50.125Z,18.5
2018-09-24T10:30:50.255Z,18.4
2018-09-24T10:31:50.303Z,18.8
2018-09-24T10:32:50.486Z,19.6
2018-09-24T10:33:50.558Z,22.1
2018-09-24T10:34:50.529Z,24
2018-09-24T10:35:50.584Z,25.5
2018-09-24T10:36:50.652Z,26.8
2018-09-24T10:37:50.738Z,27.9
2018-09-24T10:38:50.794Z,28.9
2018-09-24T10:39:50.811Z,29.9
2018-09-24T10:40:50.926Z,30.9
2018-09-24T10:41:50.943Z,31.9
2018-09-24T10:42:51.023Z,33
2018-09-24T10:44:51.164Z,31.4
2018-09-24T10:45:51.230Z,30
2018-09-24T10:46:51.310Z,28.9
2018-09-24T10:47:51.346Z,28.1
2018-09-24T10:48:51.407Z,27.4
2018-09-24T10:49:51.483Z,26.8
2018-09-24T10:50:51.523Z,25.8
2018-09-24T10:51:51.569Z,24.7
2018-09-24T10:52:51.711Z,23.7
2018-09-24T10:53:51.745Z,22.8
2018-09-24T10:54:51.782Z,22
2018-09-24T10:55:51.895Z,21
2018-09-24T10:56:51.935Z,20.1
2018-09-24T10:57:51.967Z,19.4
2018-09-24T10:58:52.156Z,18.6
2018-09-24T10:59:52.140Z,18.1
2018-09-24T11:00:52.192Z,17.4
2018-09-24T11:01:52.263Z,16.8
2018-09-24T11:02:52.332Z,16.1
2018-09-24T11:03:52.405Z,15.5
2018-09-24T11:04:52.520Z,14.9
2018-09-24T11:05:52.533Z,14.3
2018-09-24T11:06:52.586Z,13.8
2018-09-24T11:07:52.645Z,13.5
2018-09-24T11:08:52.703Z,13.1
2018-09-24T11:10:52.914Z,13.3
2018-09-24T11:11:53.000Z,13.5
2018-09-24T11:14:53.175Z,14.5
2018-09-24T11:15:53.301Z,16.1
2018-09-24T11:16:53.431Z,15.8
2018-09-24T11:17:53.415Z,15.3
2018-09-24T11:18:53.465Z,16.4
2018-09-24T11:19:53.544Z,18.8
2018-09-24T11:20:53.560Z,20
2018-09-24T11:21:53.620Z,21.4
2018-09-24T11:22:53.701Z,22.2
2018-09-24T11:23:53.808Z,23.9
2018-09-24T11:24:53.855Z,25.1
2018-09-24T11:25:53.924Z,26
2018-09-24T11:26:54.013Z,26.9
2018-09-24T11:27:54.044Z,27.5
2018-09-24T11:28:54.117Z,28.3
2018-09-24T11:29:54.173Z,28.9
2018-09-24T11:30:54.212Z,29.8
2018-09-24T11:31:54.301Z,30.6
2018-09-24T11:32:54.361Z,30.9
2018-09-24T11:33:54.438Z,31.1
2018-09-24T11:34:54.528Z,31.8
2018-09-24T11:35:54.635Z,30
2018-09-24T11:36:54.632Z,28.3
2018-09-24T11:37:54.740Z,26.6
2018-09-24T11:38:54.760Z,26
2018-09-24T11:40:54.890Z,26.1
2018-09-24T11:41:54.967Z,24.9
2018-09-24T11:42:55.106Z,23.4
2018-09-24T11:43:55.131Z,21.8
2018-09-24T11:44:55.208Z,20.4
2018-09-24T11:45:55.980Z,19
2018-09-24T11:46:55.462Z,17.9
2018-09-24T11:47:55.435Z,17
2018-09-24T11:48:55.514Z,16.1
2018-09-24T11:49:55.598Z,15.4
2018-09-24T11:50:55.580Z,14.7
2018-09-24T11:51:55.666Z,14.1
2018-09-24T11:52:55.712Z,13.6
2018-09-24T11:53:55.795Z,13.1
2018-09-24T11:54:55.856Z,12.6
2018-09-24T11:55:55.910Z,12.2
2018-09-24T11:56:55.989Z,11.9
2018-09-24T11:57:56.079Z,11.5
2018-09-24T11:58:56.141Z,11.1
2018-09-24T11:59:56.227Z,10.9
2018-09-24T12:00:56.270Z,10.8
2018-09-24T12:01:56.351Z,10.5
2018-09-24T12:02:56.402Z,10.3
2018-09-24T12:03:56.505Z,10.1
2018-09-24T12:04:56.532Z,10
2018-09-24T12:05:56.629Z,9.9
2018-09-24T12:06:56.661Z,9.8
2018-09-24T12:07:56.723Z,9.6
2018-09-24T12:08:56.786Z,9.5
2018-09-24T12:09:56.869Z,9.3
2018-09-24T12:10:56.959Z,9.1
2018-09-24T12:11:56.966Z,8.9
2018-09-24T12:12:57.063Z,8.8
2018-09-24T12:13:57.101Z,8.6
2018-09-24T12:16:57.345Z,8.8
2018-09-24T12:17:57.374Z,8.9
2018-09-24T12:18:57.455Z,9.1
2018-09-24T12:19:57.573Z,9.4
2018-09-24T12:20:57.586Z,9.9
2018-09-24T12:21:57.673Z,10.8
2018-09-24T12:22:57.747Z,11.5
2018-09-24T12:23:57.807Z,11.9
2018-09-24T12:24:57.867Z,12.2
2018-09-24T12:25:57.919Z,12.5
2018-09-24T12:26:57.990Z,12.6
2018-09-24T12:29:58.202Z,12.9
2018-09-24T12:30:58.297Z,13.1
2018-09-24T12:31:58.380Z,15.4
2018-09-24T12:32:58.406Z,15.9
2018-09-24T12:33:58.484Z,17.8
2018-09-24T12:34:58.516Z,19.5
2018-09-24T12:35:58.643Z,20.8
2018-09-24T12:36:58.665Z,21.8
2018-09-24T12:37:58.727Z,22.6
2018-09-24T12:38:58.812Z,23.3
2018-09-24T12:39:58.897Z,24
2018-09-24T12:40:59.031Z,24.5
2018-09-24T12:41:59.037Z,25
2018-09-24T12:42:59.091Z,25.5
2018-09-24T12:43:59.208Z,25.9
2018-09-24T12:44:59.266Z,26.4
2018-09-24T12:45:59.353Z,26.9
2018-09-24T12:46:59.400Z,27.6
2018-09-24T12:47:59.479Z,28.4
2018-09-24T12:48:59.547Z,28.6
2018-09-24T12:49:59.617Z,28.3
2018-09-24T12:50:59.661Z,27.1
2018-09-24T12:51:59.764Z,25.5
2018-09-24T12:52:59.840Z,24
2018-09-24T12:53:59.904Z,22.6
2018-09-24T12:54:59.929Z,21.5
2018-09-24T12:56:00.030Z,20.3
2018-09-24T12:57:00.079Z,19.3
2018-09-24T12:58:00.131Z,18.1
2018-09-24T12:59:00.230Z,17.2
2018-09-24T13:00:01.316Z,16.4
2018-09-24T13:01:01.507Z,15.6
2018-09-24T13:02:02.154Z,14.9
2018-09-24T13:03:01.851Z,14.1
2018-09-24T13:04:01.593Z,13.5
2018-09-24T13:05:01.367Z,12.9
2018-09-24T13:06:02.015Z,12.5
2018-09-24T13:07:01.526Z,12.1
2018-09-24T13:08:02.426Z,11.8
2018-09-24T13:09:01.328Z,11.4
2018-09-24T13:10:01.014Z,11
2018-09-24T13:11:02.214Z,10.6
2018-09-24T13:12:01.062Z,10.3
2018-09-24T13:13:02.283Z,10
2018-09-24T13:14:02.117Z,9.6
2018-09-24T13:15:02.389Z,9.4
2018-09-24T13:16:01.441Z,9.1
2018-09-24T13:17:01.494Z,9
2018-09-24T13:18:01.887Z,8.8
2018-09-24T13:21:01.799Z,8.9
2018-09-24T13:22:01.864Z,9.1
2018-09-24T13:23:01.907Z,9.6
2018-09-24T13:24:02.127Z,10.4
2018-09-24T13:25:02.062Z,11.3
2018-09-24T13:26:02.117Z,11.8
2018-09-24T13:27:02.207Z,11.9
2018-09-24T13:28:02.239Z,12.5
2018-09-24T13:29:02.351Z,14.6
2018-09-24T13:30:02.521Z,14.9
2018-09-24T13:31:02.479Z,14.6
2018-09-24T13:32:02.539Z,16.8
2018-09-24T13:33:02.595Z,18.6
2018-09-24T13:34:02.695Z,20.1
2018-09-24T13:35:02.764Z,21.1
2018-09-24T13:36:02.837Z,22
2018-09-24T13:37:02.889Z,22.8
2018-09-24T13:38:02.964Z,23.3
2018-09-24T13:39:02.984Z,23.7
2018-09-24T13:40:03.099Z,24.1
2018-09-24T13:41:03.188Z,24.4
2018-09-24T13:42:03.283Z,24.7
2018-09-24T13:43:03.320Z,24.5
2018-09-24T13:44:03.376Z,24.6
2018-09-24T13:45:03.419Z,24.9
2018-09-24T13:46:03.504Z,25.1
2018-09-24T13:47:03.585Z,25.4
2018-09-24T13:48:03.622Z,25.5
2018-09-24T13:50:03.721Z,25.8
2018-09-24T13:51:03.742Z,25.9
2018-09-24T13:52:03.884Z,26
2018-09-24T13:53:03.915Z,26.1
2018-09-24T13:54:03.978Z,26.2
2018-09-24T13:55:04.134Z,26.5
2018-09-24T13:56:04.157Z,26.6
2018-09-24T13:57:04.183Z,26.9
2018-09-24T13:58:04.259Z,27.1
2018-09-24T13:59:04.327Z,27.2
2018-09-24T14:00:04.407Z,26.9
2018-09-24T14:01:04.440Z,25.4
2018-09-24T14:02:04.492Z,24
2018-09-24T14:03:04.585Z,23.5
2018-09-24T14:04:04.619Z,22.9
2018-09-24T14:05:04.703Z,22.4
2018-09-24T14:06:04.797Z,21.4
2018-09-24T14:07:04.828Z,20.6
2018-09-24T14:08:04.905Z,19.8
2018-09-24T14:09:04.967Z,18.9
2018-09-24T14:10:05.032Z,18.1
2018-09-24T14:11:05.101Z,17.4
2018-09-24T14:12:05.212Z,16.6
2018-09-24T14:13:05.260Z,16
2018-09-24T14:14:05.379Z,15.4
2018-09-24T14:15:05.402Z,14.7
2018-09-24T14:16:05.479Z,14.1
2018-09-24T14:17:05.522Z,13.6
2018-09-24T14:18:05.590Z,13.3
2018-09-24T14:19:05.705Z,12.8
2018-09-24T14:20:05.714Z,12.4
2018-09-24T14:21:05.843Z,12.1
2018-09-24T14:22:05.861Z,11.8
2018-09-24T14:23:05.918Z,11.5
2018-09-24T14:24:06.014Z,11.3
2018-09-24T14:25:06.074Z,11.1
2018-09-24T14:27:06.252Z,11.3
2018-09-24T14:28:06.304Z,11.4
2018-09-24T14:30:06.421Z,11.6
2018-09-24T14:33:06.601Z,11.4
2018-09-24T14:34:06.661Z,11.3
2018-09-24T14:36:06.814Z,11.1
2018-09-24T14:37:22.821Z,11.3
2018-09-24T14:40:23.477Z,11.4
2018-09-24T14:41:24.507Z,11.5
2018-09-24T14:42:25.461Z,11.6
2018-09-24T14:44:27.428Z,11.8
2018-09-24T14:45:28.471Z,11.6
2018-09-24T14:46:29.460Z,11.5
2018-09-24T14:47:30.485Z,11.4
2018-09-24T14:48:30.567Z,11.3
2018-09-24T14:49:30.616Z,11.1
2018-09-24T14:52:31.057Z,11.3
2018-09-24T14:54:31.723Z,11.4
2018-09-24T14:58:32.121Z,11.3
2018-09-24T15:00:33.153Z,11.1
2018-09-24T15:02:33.345Z,11
2018-09-24T15:07:34.464Z,11.1
2018-09-24T15:12:34.802Z,11.4
2018-09-24T15:14:34.901Z,12
2018-09-24T15:15:34.917Z,12.2
2018-09-24T15:16:34.976Z,12.5
2018-09-24T15:17:35.035Z,13.5
2018-09-24T15:18:35.218Z,14.4
2018-09-24T15:19:35.220Z,13.9
2018-09-24T15:20:36.193Z,13.5
2018-09-24T15:21:37.168Z,13.4
2018-09-24T15:23:39.177Z,13.3
2018-09-24T15:24:39.183Z,13
2018-09-24T15:25:40.249Z,12.8
2018-09-24T15:26:40.235Z,12.6
2018-09-24T15:27:40.532Z,13.5
2018-09-24T15:28:40.342Z,14.7
2018-09-24T15:29:40.450Z,14.1
2018-09-24T15:30:40.470Z,13.6
2018-09-24T15:31:40.512Z,13.3
2018-09-24T15:34:40.698Z,13.1
2018-09-24T15:35:40.762Z,13.3
2018-09-24T15:38:40.943Z,13.1
2018-09-24T15:39:41.049Z,13
2018-09-24T15:40:41.113Z,12.9
2018-09-24T15:41:41.156Z,12.8
2018-09-24T15:42:41.185Z,12.4
2018-09-24T15:43:41.239Z,12.1
2018-09-24T15:44:41.345Z,11.8
2018-09-24T15:45:41.375Z,11.5
2018-09-24T15:46:41.445Z,11.3
2018-09-24T15:47:41.555Z,11.1
2018-09-24T15:48:41.613Z,11
2018-09-24T15:49:41.692Z,10.9
2018-09-24T15:50:41.692Z,10.6
2018-09-24T15:52:41.791Z,10.5
2018-09-24T15:58:42.225Z,10.4
2018-09-24T15:59:42.277Z,10.3
2018-09-24T16:00:42.328Z,10.1
2018-09-24T16:01:42.420Z,10
2018-09-24T16:02:42.442Z,9.9
2018-09-24T16:03:42.506Z,9.8
2018-09-24T16:04:42.581Z,9.6
2018-09-24T16:05:42.606Z,9.4
2018-09-24T16:07:42.735Z,9.3
2018-09-24T16:08:42.798Z,9.1
2018-09-24T16:09:42.880Z,9
2018-09-24T16:11:42.990Z,8.9
2018-09-24T16:13:43.194Z,8.8
2018-09-24T16:15:43.238Z,8.6
2018-09-24T16:17:43.324Z,8.5
2018-09-24T16:23:43.724Z,8.6
2018-09-24T16:24:43.768Z,8.8
2018-09-24T16:25:43.821Z,8.9
2018-09-24T16:26:43.895Z,9
2018-09-24T16:27:43.951Z,9.1
2018-09-24T16:28:44.011Z,9.9
2018-09-24T16:29:44.064Z,10
2018-09-24T16:30:44.129Z,10.4
2018-09-24T16:31:44.184Z,10.1
2018-09-24T16:32:44.253Z,10
2018-09-24T16:33:44.311Z,9.8
2018-09-24T16:34:44.413Z,9.5
2018-09-24T16:35:44.470Z,9.3
2018-09-24T16:36:44.537Z,9
2018-09-24T16:37:44.607Z,8.9
2018-09-24T16:38:44.669Z,8.6
2018-09-24T16:39:44.700Z,8.5
2018-09-24T16:40:44.768Z,8.4
2018-09-24T16:41:44.803Z,8.3
2018-09-24T16:42:44.911Z,8.1
2018-09-24T16:43:44.945Z,8
2018-09-24T16:44:45.009Z,7.9
2018-09-24T16:45:45.121Z,7.7
2018-09-24T16:46:45.150Z,7.6
2018-09-24T16:49:45.410Z,7.5
2018-09-24T16:51:45.490Z,7.4
2018-09-24T17:02:46.141Z,7.5
2018-09-24T17:16:46.999Z,7.4
2018-09-24T17:21:47.295Z,7.2
2018-09-24T17:24:47.688Z,7.1
2018-09-24T17:27:48.744Z,7
2018-09-24T17:31:48.906Z,6.9
2018-09-24T17:37:49.218Z,6.7
2018-09-24T17:46:49.765Z,6.6
2018-09-24T18:04:50.731Z,6.5
2018-09-24T18:12:51.158Z,6.4
2018-09-24T18:14:51.384Z,6.5
2018-09-24T18:15:51.445Z,6.4
2018-09-24T18:18:51.574Z,6.5
2018-09-24T18:19:51.596Z,6.4
2018-09-24T18:33:52.233Z,6.2
2018-09-24T18:52:53.118Z,6.1
2018-09-24T18:58:53.443Z,6
2018-09-24T19:08:53.875Z,5.9
2018-09-24T19:24:54.632Z,6
2018-09-24T19:25:54.669Z,5.9
2018-09-24T19:26:54.717Z,6
2018-09-24T19:28:54.860Z,5.9
2018-09-24T19:29:54.932Z,6
2018-09-24T19:59:56.417Z,6.1
2018-09-24T20:15:57.198Z,6
2018-09-24T20:34:58.248Z,6.1
2018-09-24T20:35:58.286Z,6
2018-09-24T20:36:58.341Z,6.1
2018-09-24T20:39:58.521Z,6
2018-09-24T20:40:58.507Z,6.1
2018-09-24T20:55:59.228Z,6
2018-09-24T20:59:59.438Z,5.9
2018-09-24T21:07:59.850Z,5.7
2018-09-24T21:16:00.194Z,5.6
2018-09-24T21:23:02.932Z,5.5
2018-09-24T21:24:01.854Z,5.6
2018-09-24T21:25:00.916Z,5.5
2018-09-24T21:32:01.334Z,5.4
2018-09-24T21:46:01.822Z,5.5
2018-09-24T21:47:01.652Z,5.4
2018-09-24T21:48:01.589Z,5.5
2018-09-24T21:54:01.995Z,5.6
2018-09-24T21:55:02.040Z,5.5
2018-09-24T21:56:02.097Z,5.6
2018-09-24T22:03:02.308Z,5.7
2018-09-24T22:04:02.399Z,5.6
2018-09-24T22:05:02.410Z,5.7
2018-09-24T22:07:02.494Z,5.6
2018-09-24T22:15:02.784Z,5.7
2018-09-24T22:16:02.800Z,5.6
2018-09-24T22:27:03.233Z,5.5
2018-09-24T22:37:03.606Z,5.6
2018-09-24T22:46:03.978Z,5.5
2018-09-24T22:54:04.271Z,5.4
2018-09-24T23:12:04.924Z,5.2
2018-09-24T23:13:04.966Z,5.4
2018-09-24T23:14:04.999Z,5.2
2018-09-24T23:17:05.133Z,5.4
2018-09-24T23:18:05.192Z,5.2
2018-09-24T23:49:06.390Z,5.1
2018-09-24T23:50:06.451Z,5.2
2018-09-24T23:52:06.500Z,5.1
2018-09-24T23:59:06.780Z,5
